createdAt,value
2019-01-03T00:00:48.688Z,100521.36
2019-01-03T00:03:46.637Z,100512.16
2019-01-03T00:06:49.338Z,100516.95
2019-01-03T00:09:51.917Z,100521.39
2019-01-03T00:12:51.241Z,100526.66
2019-01-03T00:15:41.652Z,100529.28
2019-01-03T00:18:31.019Z,100533.70
2019-01-03T00:21:27.472Z,100530.19
2019-01-03T00:24:20.913Z,100529.75
2019-01-03T00:27:12.103Z,100534.57
2019-01-03T00:30:20.693Z,100537.20
2019-01-03T00:33:16.176Z,100538.06
2019-01-03T00:36:11.233Z,100532.39
2019-01-03T00:39:02.888Z,100534.12
2019-01-03T00:41:54.801Z,100538.95
2019-01-03T00:44:54.419Z,100541.57
2019-01-03T00:47:43.659Z,100545.48
2019-01-03T00:50:34.036Z,100545.51
2019-01-03T00:53:36.487Z,100540.25
2019-01-03T00:56:25.781Z,100546.34
2019-01-03T00:59:16.053Z,100551.16
2019-01-03T01:02:06.714Z,100555.09
2019-01-03T01:04:57.045Z,100550.70
2019-01-03T01:07:56.875Z,100557.25
2019-01-03T01:10:45.930Z,100552.88
2019-01-03T01:13:47.180Z,100553.75
2019-01-03T01:16:38.105Z,100549.80
2019-01-03T01:19:29.491Z,100548.51
2019-01-03T01:22:19.632Z,100555.06
2019-01-03T01:25:24.086Z,100550.27
2019-01-03T01:28:13.012Z,100553.32
2019-01-03T01:31:16.589Z,100557.23
2019-01-03T01:34:05.933Z,100566.81
2019-01-03T01:36:55.357Z,100562.45
2019-01-03T01:39:39.258Z,100559.82
2019-01-03T01:42:32.796Z,100565.53
2019-01-03T01:45:21.653Z,100566.88
2019-01-03T01:48:17.316Z,100565.14
2019-01-03T01:51:06.380Z,100560.75
2019-01-03T01:54:04.969Z,100571.27
2019-01-03T01:57:04.293Z,100559.91
2019-01-03T01:59:54.612Z,100558.56
2019-01-03T02:02:44.091Z,100554.63
2019-01-03T02:05:46.788Z,100562.07
2019-01-03T02:08:40.174Z,100556.83
2019-01-03T02:11:30.339Z,100552.44
2019-01-03T02:14:21.957Z,100550.24
2019-01-03T02:17:05.452Z,100549.39
2019-01-03T02:19:49.442Z,100550.24
2019-01-03T02:22:43.113Z,100551.97
2019-01-03T02:25:33.439Z,100553.70
2019-01-03T02:28:32.146Z,100563.30
2019-01-03T02:31:31.976Z,100555.80
2019-01-03T02:34:21.069Z,100551.41
2019-01-03T02:37:20.502Z,100553.55
2019-01-03T02:40:23.307Z,100549.63
2019-01-03T02:43:12.317Z,100551.75
2019-01-03T02:46:01.675Z,100551.77
2019-01-03T02:49:01.229Z,100550.88
2019-01-03T02:51:58.992Z,100551.30
2019-01-03T02:54:52.578Z,100551.24
2019-01-03T02:57:43.482Z,100551.63
2019-01-03T03:00:32.527Z,100557.69
2019-01-03T03:03:27.684Z,100554.20
2019-01-03T03:06:20.091Z,100550.72
2019-01-03T03:09:09.294Z,100551.17
2019-01-03T03:11:58.540Z,100546.39
2019-01-03T03:14:52.289Z,100548.95
2019-01-03T03:17:41.563Z,100544.14
2019-01-03T03:20:41.313Z,100547.62
2019-01-03T03:23:31.844Z,100553.67
2019-01-03T03:26:22.136Z,100561.91
2019-01-03T03:29:12.416Z,100557.14
2019-01-03T03:32:01.537Z,100551.48
2019-01-03T03:35:01.021Z,100551.95
2019-01-03T03:37:50.234Z,100548.02
2019-01-03T03:40:39.521Z,100554.58
2019-01-03T03:43:42.380Z,100564.61
2019-01-03T03:46:38.731Z,100553.21
2019-01-03T03:49:28.113Z,100553.17
2019-01-03T03:52:21.624Z,100546.63
2019-01-03T03:55:30.439Z,100550.05
2019-01-03T03:58:33.195Z,100548.76
2019-01-03T04:01:22.146Z,100552.66
2019-01-03T04:04:18.567Z,100552.68
2019-01-03T04:07:24.494Z,100551.38
2019-01-03T04:10:14.979Z,100552.66
2019-01-03T04:13:03.924Z,100564.83
2019-01-03T04:15:58.837Z,100560.02
2019-01-03T04:18:55.108Z,100563.59
2019-01-03T04:21:51.903Z,100562.71
2019-01-03T04:24:42.293Z,100569.66
2019-01-03T04:27:30.289Z,100571.78
2019-01-03T04:30:29.853Z,100569.54
2019-01-03T04:33:38.437Z,100564.71
2019-01-03T04:36:37.904Z,100566.47
2019-01-03T04:39:43.548Z,100555.08
2019-01-03T04:42:32.840Z,100554.64
2019-01-03T04:45:27.620Z,100553.33
2019-01-03T04:48:16.516Z,100552.88
2019-01-03T04:51:10.673Z,100550.72
2019-01-03T04:53:59.609Z,100555.89
2019-01-03T04:56:48.961Z,100556.33
2019-01-03T04:59:40.053Z,100548.91
2019-01-03T05:02:42.777Z,100557.62
2019-01-03T05:05:32.558Z,100555.47
2019-01-03T05:08:20.573Z,100557.98
2019-01-03T05:11:02.669Z,100554.97
2019-01-03T05:14:11.826Z,100555.77
2019-01-03T05:17:17.926Z,100552.23
2019-01-03T05:20:08.346Z,100563.09
2019-01-03T05:22:57.475Z,100554.33
2019-01-03T05:25:58.917Z,100556.58
2019-01-03T05:28:52.027Z,100552.20
2019-01-03T05:31:40.663Z,100549.63
2019-01-03T05:34:40.111Z,100556.13
2019-01-03T05:37:41.560Z,100568.70
2019-01-03T05:40:30.750Z,100560.86
2019-01-03T05:43:32.657Z,100561.25
2019-01-03T05:46:21.676Z,100561.22
2019-01-03T05:49:10.719Z,100562.14
2019-01-03T05:52:07.158Z,100565.17
2019-01-03T05:55:06.783Z,100569.95
2019-01-03T05:58:12.253Z,100560.33
2019-01-03T06:00:54.083Z,100565.52
2019-01-03T06:03:43.286Z,100580.33
2019-01-03T06:06:37.033Z,100585.55
2019-01-03T06:09:42.933Z,100582.01
2019-01-03T06:12:36.146Z,100572.02
2019-01-03T06:15:25.044Z,100575.07
2019-01-03T06:18:17.785Z,100568.19
2019-01-03T06:21:07.073Z,100571.16
2019-01-03T06:24:09.705Z,100579.08
2019-01-03T06:27:15.246Z,100575.23
2019-01-03T06:30:17.877Z,100567.78
2019-01-03T06:33:06.952Z,100584.30
2019-01-03T06:35:57.889Z,100586.83
2019-01-03T06:38:47.031Z,100585.03
2019-01-03T06:41:41.837Z,100579.77
2019-01-03T06:44:31.196Z,100581.17
2019-01-03T06:47:36.755Z,100588.53
2019-01-03T06:50:31.228Z,100583.45
2019-01-03T06:53:20.754Z,100586.39
2019-01-03T06:56:10.193Z,100584.27
2019-01-03T06:59:07.026Z,100582.85
2019-01-03T07:02:06.735Z,100589.81
2019-01-03T07:04:57.057Z,100594.63
2019-01-03T07:07:46.097Z,100596.72
2019-01-03T07:10:36.240Z,100601.05
2019-01-03T07:13:22.872Z,100604.64
2019-01-03T07:16:12.141Z,100611.17
2019-01-03T07:18:59.365Z,100617.58
2019-01-03T07:21:47.172Z,100622.84
2019-01-03T07:24:46.849Z,100623.86
2019-01-03T07:27:36.224Z,100626.38
2019-01-03T07:30:32.804Z,100633.69
2019-01-03T07:33:21.909Z,100640.62
2019-01-03T07:36:24.728Z,100640.74
2019-01-03T07:39:26.950Z,100638.59
2019-01-03T07:42:23.715Z,100644.75
2019-01-03T07:45:15.181Z,100645.59
2019-01-03T07:48:08.722Z,100645.66
2019-01-03T07:50:53.131Z,100640.46
2019-01-03T07:53:46.865Z,100647.48
2019-01-03T07:56:43.205Z,100648.84
2019-01-03T07:59:39.796Z,100647.60
2019-01-03T08:02:33.740Z,100653.78
2019-01-03T08:05:24.221Z,100655.52
2019-01-03T08:08:13.251Z,100657.43
2019-01-03T08:11:02.237Z,100653.99
2019-01-03T08:13:58.472Z,100661.42
2019-01-03T08:16:49.273Z,100661.91
2019-01-03T08:19:38.851Z,100671.57
2019-01-03T08:22:27.332Z,100670.31
2019-01-03T08:25:21.119Z,100664.28
2019-01-03T08:28:23.711Z,100673.50
2019-01-03T08:31:17.134Z,100674.01
2019-01-03T08:34:06.577Z,100680.63
2019-01-03T08:36:55.617Z,100681.98
2019-01-03T08:39:46.263Z,100675.50
2019-01-03T08:42:39.707Z,100676.52
2019-01-03T08:45:29.003Z,100675.28
2019-01-03T08:48:17.447Z,100674.50
2019-01-03T08:51:10.660Z,100676.77
2019-01-03T08:54:13.345Z,100675.48
2019-01-03T08:57:02.428Z,100672.02
2019-01-03T08:59:54.440Z,100676.84
2019-01-03T09:02:54.163Z,100674.23
2019-01-03T09:05:43.505Z,100672.52
2019-01-03T09:08:42.784Z,100670.83
2019-01-03T09:11:48.446Z,100665.62
2019-01-03T09:14:38.758Z,100668.25
2019-01-03T09:17:24.975Z,100669.16
2019-01-03T09:20:15.424Z,100677.48
2019-01-03T09:23:12.008Z,100667.00
2019-01-03T09:26:05.194Z,100667.45
2019-01-03T09:29:01.390Z,100671.42
2019-01-03T09:31:50.688Z,100671.88
2019-01-03T09:34:44.013Z,100670.98
2019-01-03T09:37:40.535Z,100670.56
2019-01-03T09:40:46.342Z,100678.00
2019-01-03T09:43:37.390Z,100680.63
2019-01-03T09:46:09.066Z,100677.98
2019-01-03T09:48:40.817Z,100671.37
2019-01-03T09:51:12.244Z,100666.19
2019-01-03T09:53:43.653Z,100674.21
2019-01-03T09:56:15.143Z,100664.06
2019-01-03T09:58:46.554Z,100661.11
2019-01-03T10:01:18.401Z,100663.30
2019-01-03T10:03:49.775Z,100654.34
2019-01-03T10:06:21.206Z,100645.45
2019-01-03T10:08:52.561Z,100637.22
2019-01-03T10:11:23.997Z,100640.97
2019-01-03T10:13:55.431Z,100640.41
2019-01-03T10:16:26.859Z,100635.64
2019-01-03T10:18:58.242Z,100641.23
2019-01-03T10:21:29.661Z,100639.45
2019-01-03T10:24:01.146Z,100636.00
2019-01-03T10:26:32.565Z,100634.33
2019-01-03T10:29:03.954Z,100639.03
2019-01-03T10:31:35.365Z,100636.09
2019-01-03T10:34:06.750Z,100634.02
2019-01-03T10:36:38.155Z,100637.00
2019-01-03T10:39:09.907Z,100623.46
2019-01-03T10:41:41.403Z,100623.46
2019-01-03T10:44:12.815Z,100626.06
2019-01-03T10:46:44.348Z,100622.33
2019-01-03T10:49:15.762Z,100617.11
2019-01-03T10:51:47.167Z,100615.84
2019-01-03T10:54:18.603Z,100610.83
2019-01-03T10:56:49.958Z,100605.44
2019-01-03T10:59:21.366Z,100605.35
2019-01-03T11:01:52.780Z,100605.75
2019-01-03T11:04:24.183Z,100605.75
2019-01-03T11:06:55.567Z,100604.42
2019-01-03T11:09:26.929Z,100599.95
2019-01-03T11:11:58.359Z,100596.27
2019-01-03T11:14:29.682Z,100595.97
2019-01-03T11:17:01.116Z,100594.45
2019-01-03T11:19:32.527Z,100591.34
2019-01-03T11:22:03.914Z,100584.17
2019-01-03T11:24:35.327Z,100579.70
2019-01-03T11:27:07.093Z,100576.50
2019-01-03T11:29:38.479Z,100569.20
2019-01-03T11:32:09.812Z,100572.80
2019-01-03T11:34:41.225Z,100567.65
2019-01-03T11:37:12.625Z,100574.69
2019-01-03T11:39:44.003Z,100565.75
2019-01-03T11:42:15.417Z,100570.89
2019-01-03T11:44:46.830Z,100560.08
2019-01-03T11:47:18.307Z,100558.67
2019-01-03T11:49:49.792Z,100559.08
2019-01-03T11:52:21.137Z,100560.57
2019-01-03T11:54:52.541Z,100551.22
2019-01-03T11:57:24.017Z,100548.16
2019-01-03T11:59:55.743Z,100551.63
2019-01-03T12:02:27.163Z,100546.02
2019-01-03T12:04:58.877Z,100536.28
2019-01-03T12:07:30.256Z,100540.67
2019-01-03T12:10:01.649Z,100531.89
2019-01-03T12:12:33.119Z,100541.75
2019-01-03T12:15:05.080Z,100528.70
2019-01-03T12:17:36.479Z,100532.95
2019-01-03T12:20:07.908Z,100526.63
2019-01-03T12:22:39.298Z,100525.91
2019-01-03T12:25:10.691Z,100522.10
2019-01-03T12:27:42.168Z,100524.13
2019-01-03T12:30:13.578Z,100523.84
2019-01-03T12:32:47.080Z,100517.34
2019-01-03T12:35:18.520Z,100519.06
2019-01-03T12:37:49.924Z,100509.53
2019-01-03T12:40:21.321Z,100508.62
2019-01-03T12:42:52.812Z,100508.28
2019-01-03T12:45:24.294Z,100505.38
2019-01-03T12:47:55.623Z,100501.52
2019-01-03T12:50:26.996Z,100495.20
2019-01-03T12:52:58.417Z,100495.20
2019-01-03T12:55:29.839Z,100493.26
2019-01-03T12:58:01.229Z,100491.80
2019-01-03T13:00:32.931Z,100487.42
2019-01-03T13:03:04.333Z,100478.52
2019-01-03T13:05:35.983Z,100479.64
2019-01-03T13:08:07.396Z,100474.23
2019-01-03T13:10:38.895Z,100475.20
2019-01-03T13:13:10.389Z,100473.69
2019-01-03T13:15:41.741Z,100477.52
2019-01-03T13:18:13.128Z,100477.03
2019-01-03T13:20:44.660Z,100471.02
2019-01-03T13:23:16.058Z,100473.20
2019-01-03T13:25:47.437Z,100474.14
2019-01-03T13:28:18.831Z,100481.70
2019-01-03T13:30:50.274Z,100483.89
2019-01-03T13:33:21.660Z,100483.62
2019-01-03T13:35:54.053Z,100484.84
2019-01-03T13:38:25.446Z,100490.30
2019-01-03T13:40:56.853Z,100489.77
2019-01-03T13:43:28.282Z,100494.06
2019-01-03T13:45:59.992Z,100494.01
2019-01-03T13:48:31.633Z,100500.63
2019-01-03T13:51:03.036Z,100497.91
2019-01-03T13:53:34.466Z,100494.23
2019-01-03T13:56:05.951Z,100494.56
2019-01-03T13:58:37.678Z,100488.05
2019-01-03T14:01:09.040Z,100487.11
2019-01-03T14:03:40.578Z,100481.73
2019-01-03T14:06:11.959Z,100488.91
2019-01-03T14:08:43.322Z,100486.54
2019-01-03T14:11:15.262Z,100486.94
2019-01-03T14:13:46.618Z,100492.80
2019-01-03T14:16:18.418Z,100498.02
2019-01-03T14:18:49.743Z,100494.31
2019-01-03T14:21:21.167Z,100493.05
2019-01-03T14:23:52.529Z,100498.22
2019-01-03T14:26:23.967Z,100500.02
2019-01-03T14:28:56.694Z,100499.45
2019-01-03T14:31:28.492Z,100500.61
2019-01-03T14:33:59.886Z,100499.17
2019-01-03T14:36:31.669Z,100496.84
2019-01-03T14:39:04.268Z,100495.14
2019-01-03T14:41:35.668Z,100500.66
2019-01-03T14:44:07.131Z,100500.14
2019-01-03T14:46:38.555Z,100507.99
2019-01-03T14:49:09.933Z,100513.26
2019-01-03T14:51:41.377Z,100522.67
2019-01-03T14:54:12.809Z,100524.19
2019-01-03T14:56:44.257Z,100527.77
2019-01-03T14:59:15.608Z,100523.02
2019-01-03T15:01:46.969Z,100528.94
2019-01-03T15:04:18.411Z,100525.94
2019-01-03T15:06:50.085Z,100526.91
2019-01-03T15:09:21.767Z,100521.63
2019-01-03T15:11:53.275Z,100519.07
2019-01-03T15:14:24.633Z,100528.31
2019-01-03T15:16:56.416Z,100521.36
2019-01-03T15:19:27.734Z,100516.14
2019-01-03T15:21:59.638Z,100520.51
2019-01-03T15:24:31.040Z,100523.15
2019-01-03T15:27:02.499Z,100517.47
2019-01-03T15:29:33.851Z,100512.20
2019-01-03T15:32:05.301Z,100514.89
2019-01-03T15:34:36.647Z,100525.93
2019-01-03T15:37:08.186Z,100523.41
2019-01-03T15:39:39.550Z,100525.66
2019-01-03T15:42:10.987Z,100523.00
2019-01-03T15:44:42.347Z,100521.74
2019-01-03T15:47:14.711Z,100516.06
2019-01-03T15:49:46.387Z,100523.98
2019-01-03T15:52:19.294Z,100526.74
2019-01-03T15:54:50.711Z,100531.09
2019-01-03T15:57:22.285Z,100526.29
2019-01-03T15:59:53.737Z,100531.56
2019-01-03T16:02:25.223Z,100532.94
2019-01-03T16:04:56.606Z,100536.90
2019-01-03T16:07:28.545Z,100539.48
2019-01-03T16:09:59.922Z,100543.50
2019-01-03T16:12:31.389Z,100541.89
2019-01-03T16:15:02.799Z,100535.77
2019-01-03T16:17:34.310Z,100536.67
2019-01-03T16:20:06.662Z,100540.23
2019-01-03T16:22:39.578Z,100545.96
2019-01-03T16:25:11.062Z,100550.79
2019-01-03T16:27:42.506Z,100544.20
2019-01-03T16:30:13.824Z,100543.79
2019-01-03T16:32:45.244Z,100544.71
2019-01-03T16:35:16.584Z,100544.30
2019-01-03T16:37:48.083Z,100544.20
2019-01-03T16:40:19.556Z,100538.09
2019-01-03T16:42:52.220Z,100529.78
2019-01-03T16:45:23.628Z,100522.28
2019-01-03T16:47:55.460Z,100525.84
2019-01-03T16:50:27.144Z,100515.39
2019-01-03T16:52:58.583Z,100518.53
2019-01-03T16:55:29.938Z,100520.27
2019-01-03T16:58:01.535Z,100516.81
2019-01-03T17:00:34.429Z,100525.19
2019-01-03T17:03:06.229Z,100532.93
2019-01-03T17:05:37.598Z,100534.61
2019-01-03T17:08:09.196Z,100532.88
2019-01-03T17:10:40.536Z,100526.75
2019-01-03T17:13:12.040Z,100532.48
2019-01-03T17:15:43.752Z,100533.80
2019-01-03T17:18:15.190Z,100526.36
2019-01-03T17:20:46.608Z,100528.59
2019-01-03T17:23:19.102Z,100539.59
2019-01-03T17:25:51.289Z,100533.41
2019-01-03T17:28:22.807Z,100535.59
2019-01-03T17:30:54.252Z,100536.49
2019-01-03T17:33:25.650Z,100534.77
2019-01-03T17:35:57.440Z,100530.80
2019-01-03T17:38:28.841Z,100532.13
2019-01-03T17:41:00.267Z,100531.22
2019-01-03T17:43:32.054Z,100533.44
2019-01-03T17:46:03.424Z,100534.78
2019-01-03T17:48:35.869Z,100537.42
2019-01-03T17:51:07.293Z,100533.95
2019-01-03T17:53:38.860Z,100537.42
2019-01-03T17:56:10.196Z,100536.08
2019-01-03T17:58:41.655Z,100536.03
2019-01-03T18:01:12.965Z,100539.08
2019-01-03T18:03:44.369Z,100535.17
2019-01-03T18:06:16.052Z,100536.55
2019-01-03T18:08:47.497Z,100533.91
2019-01-03T18:11:18.937Z,100531.28
2019-01-03T18:13:50.384Z,100529.50
2019-01-03T18:16:21.779Z,100544.01
2019-01-03T18:18:53.192Z,100542.73
2019-01-03T18:21:24.874Z,100547.14
2019-01-03T18:23:56.388Z,100540.95
2019-01-03T18:26:27.787Z,100537.01
2019-01-03T18:28:59.212Z,100535.29
2019-01-03T18:31:30.956Z,100539.33
2019-01-03T18:34:02.498Z,100534.53
2019-01-03T18:36:34.235Z,100531.02
2019-01-03T18:39:06.782Z,100534.62
2019-01-03T18:41:38.411Z,100542.17
2019-01-03T18:44:10.319Z,100542.72
2019-01-03T18:46:41.677Z,100541.45
2019-01-03T18:49:13.066Z,100545.14
2019-01-03T18:51:44.552Z,100540.08
2019-01-03T18:54:15.958Z,100548.89
2019-01-03T18:56:47.348Z,100548.39
2019-01-03T18:59:18.863Z,100551.03
2019-01-03T19:01:50.390Z,100550.53
2019-01-03T19:04:21.720Z,100547.36
2019-01-03T19:06:53.491Z,100551.31
2019-01-03T19:09:24.864Z,100551.72
2019-01-03T19:11:56.451Z,100544.68
2019-01-03T19:14:27.942Z,100549.09
2019-01-03T19:16:59.738Z,100550.81
2019-01-03T19:19:31.195Z,100543.77
2019-01-03T19:22:02.691Z,100550.36
2019-01-03T19:24:34.085Z,100549.54
2019-01-03T19:27:05.480Z,100551.27
2019-01-03T19:29:36.895Z,100543.86
2019-01-03T19:32:08.639Z,100536.99
2019-01-03T19:34:40.198Z,100537.03
2019-01-03T19:37:11.653Z,100543.66
2019-01-03T19:39:43.204Z,100550.28
2019-01-03T19:42:14.597Z,100553.41
2019-01-03T19:44:46.411Z,100556.83
2019-01-03T19:47:17.904Z,100551.52
2019-01-03T19:49:49.637Z,100555.84
2019-01-03T19:52:21.474Z,100548.85
2019-01-03T19:54:53.323Z,100553.62
2019-01-03T19:57:25.824Z,100549.75
2019-01-03T19:59:57.822Z,100554.57
2019-01-03T20:02:29.542Z,100548.84
2019-01-03T20:05:01.348Z,100549.76
2019-01-03T20:07:32.700Z,100548.93
2019-01-03T20:10:04.114Z,100549.83
2019-01-03T20:12:35.492Z,100554.20
2019-01-03T20:15:08.007Z,100554.16
2019-01-03T20:17:39.889Z,100550.20
2019-01-03T20:20:11.552Z,100553.25
2019-01-03T20:22:43.049Z,100550.17
2019-01-03T20:25:15.463Z,100552.43
2019-01-03T20:27:46.949Z,100562.52
2019-01-03T20:30:19.157Z,100555.92
2019-01-03T20:32:51.085Z,100553.75
2019-01-03T20:35:22.851Z,100563.91
2019-01-03T20:37:54.568Z,100553.30
2019-01-03T20:40:26.014Z,100546.70
2019-01-03T20:42:57.482Z,100544.98
2019-01-03T20:45:29.464Z,100541.02
2019-01-03T20:48:01.199Z,100541.44
2019-01-03T20:50:33.363Z,100548.44
2019-01-03T20:53:05.119Z,100544.48
2019-01-03T20:55:36.664Z,100541.86
2019-01-03T20:58:08.391Z,100543.62
2019-01-03T21:00:39.802Z,100537.49
2019-01-03T21:03:11.194Z,100529.09
2019-01-03T21:05:42.745Z,100533.86
2019-01-03T21:08:14.220Z,100532.09
2019-01-03T21:10:46.043Z,100538.72
2019-01-03T21:13:17.757Z,100537.45
2019-01-03T21:15:49.269Z,100535.77
2019-01-03T21:18:21.058Z,100527.91
2019-01-03T21:20:53.243Z,100520.49
2019-01-03T21:23:24.636Z,100513.05
2019-01-03T21:25:56.189Z,100511.28
2019-01-03T21:28:27.711Z,100510.82
2019-01-03T21:30:59.238Z,100512.55
2019-01-03T21:33:30.671Z,100513.88
2019-01-03T21:36:02.049Z,100510.33
2019-01-03T21:38:33.435Z,100513.38
2019-01-03T21:41:04.877Z,100514.28
2019-01-03T21:43:36.268Z,100506.78
2019-01-03T21:46:07.954Z,100520.78
2019-01-03T21:48:40.367Z,100527.31
2019-01-03T21:51:11.852Z,100523.37
2019-01-03T21:53:43.306Z,100520.77
2019-01-03T21:56:14.784Z,100515.51
2019-01-03T21:58:46.184Z,100512.02
2019-01-03T22:01:18.296Z,100509.42
2019-01-03T22:03:50.058Z,100515.59
2019-01-03T22:06:21.785Z,100525.27
2019-01-03T22:08:53.680Z,100522.63
2019-01-03T22:11:25.540Z,100518.31
2019-01-03T22:13:56.989Z,100520.08
2019-01-03T22:16:28.809Z,100520.95
2019-01-03T22:19:02.319Z,100523.58
2019-01-03T22:21:33.775Z,100519.63
2019-01-03T22:24:05.577Z,100517.45
2019-01-03T22:26:36.940Z,100516.58
2019-01-03T22:29:08.356Z,100519.22
2019-01-03T22:31:40.656Z,100517.86
2019-01-03T22:34:12.066Z,100522.22
2019-01-03T22:36:43.466Z,100517.41
2019-01-03T22:39:15.235Z,100527.08
2019-01-03T22:41:48.011Z,100526.62
2019-01-03T22:44:19.534Z,100520.45
2019-01-03T22:46:53.124Z,100523.50
2019-01-03T22:49:26.908Z,100528.73
2019-01-03T22:51:58.421Z,100534.41
2019-01-03T22:54:30.033Z,100525.14
2019-01-03T22:57:01.427Z,100525.18
2019-01-03T22:59:32.829Z,100527.41
2019-01-03T23:02:04.232Z,100537.08
2019-01-03T23:04:35.736Z,100545.43
2019-01-03T23:07:07.133Z,100530.98
2019-01-03T23:09:38.527Z,100534.11
2019-01-03T23:12:09.928Z,100532.72
2019-01-03T23:14:41.346Z,100535.34
2019-01-03T23:17:12.728Z,100536.67
2019-01-03T23:19:44.153Z,100534.07
2019-01-03T23:22:15.530Z,100527.48
2019-01-03T23:24:47.131Z,100531.40
2019-01-03T23:27:18.532Z,100540.16
2019-01-03T23:29:49.929Z,100534.07
2019-01-03T23:32:21.333Z,100529.25
2019-01-03T23:34:52.726Z,100529.71
2019-01-03T23:37:24.129Z,100536.33
2019-01-03T23:39:55.546Z,100531.52
2019-01-03T23:42:26.924Z,100533.29
2019-01-03T23:45:19.476Z,100528.96
2019-01-03T23:47:55.885Z,100530.73
2019-01-03T23:50:33.416Z,100528.17
2019-01-03T23:53:05.066Z,100530.80
2019-01-03T23:55:43.303Z,100531.26
2019-01-03T23:58:14.673Z,100526.48
